createdAt,value
2018-05-17T00:01:33.029Z,100731.66
2018-05-17T00:04:00.451Z,100734.30
2018-05-17T00:06:27.866Z,100734.38
2018-05-17T00:08:55.290Z,100739.77
2018-05-17T00:11:22.720Z,100743.27
2018-05-17T00:13:50.121Z,100743.10
2018-05-17T00:16:17.527Z,100755.06
2018-05-17T00:18:44.947Z,100746.50
2018-05-17T00:21:12.356Z,100744.72
2018-05-17T00:23:39.892Z,100740.86
2018-05-17T00:26:07.312Z,100736.19
2018-05-17T00:28:34.719Z,100733.21
2018-05-17T00:31:02.147Z,100730.77
2018-05-17T00:33:29.556Z,100733.61
2018-05-17T00:35:56.967Z,100733.21
2018-05-17T00:38:24.385Z,100723.72
2018-05-17T00:40:51.788Z,100728.41
2018-05-17T00:43:19.212Z,100739.80
2018-05-17T00:45:46.616Z,100744.52
2018-05-17T00:48:14.028Z,100744.20
2018-05-17T00:50:41.448Z,100749.33
2018-05-17T00:53:20.753Z,100743.84
2018-05-17T00:55:48.180Z,100747.59
2018-05-17T00:58:15.587Z,100750.02
2018-05-17T01:00:42.996Z,100747.48
2018-05-17T01:03:10.742Z,100746.16
2018-05-17T01:05:38.149Z,100755.42
2018-05-17T01:08:05.564Z,100756.45
2018-05-17T01:10:32.983Z,100755.95
2018-05-17T01:13:00.389Z,100748.38
2018-05-17T01:15:27.816Z,100754.97
2018-05-17T01:17:55.237Z,100752.83
2018-05-17T01:20:22.665Z,100744.63
2018-05-17T01:22:50.080Z,100738.50
2018-05-17T01:25:17.508Z,100732.41
2018-05-17T01:27:44.922Z,100732.98
2018-05-17T01:30:12.349Z,100741.47
2018-05-17T01:32:39.760Z,100743.66
2018-05-17T01:35:07.558Z,100741.01
2018-05-17T01:37:46.648Z,100741.39
2018-05-17T01:40:14.076Z,100739.92
2018-05-17T01:42:41.488Z,100737.38
2018-05-17T01:45:08.902Z,100749.67
2018-05-17T01:47:36.353Z,100750.81
2018-05-17T01:50:03.764Z,100752.48
2018-05-17T01:52:31.188Z,100750.24
2018-05-17T01:54:58.591Z,100752.24
2018-05-17T01:57:26.000Z,100752.53
2018-05-17T01:59:53.432Z,100747.54
2018-05-17T02:02:20.831Z,100748.03
2018-05-17T02:04:48.237Z,100750.99
2018-05-17T02:07:15.671Z,100754.02
2018-05-17T02:09:43.072Z,100753.84
2018-05-17T02:12:10.480Z,100760.29
2018-05-17T02:14:37.903Z,100768.92
2018-05-17T02:17:05.309Z,100766.41
2018-05-17T02:19:32.711Z,100761.77
2018-05-17T02:22:00.137Z,100764.55
2018-05-17T02:24:27.543Z,100764.88
2018-05-17T02:26:55.281Z,100771.38
2018-05-17T02:29:22.687Z,100770.22
2018-05-17T02:31:50.094Z,100771.97
2018-05-17T02:34:17.511Z,100779.80
2018-05-17T02:36:44.932Z,100775.95
2018-05-17T02:39:12.333Z,100769.30
2018-05-17T02:41:39.752Z,100770.84
2018-05-17T02:44:07.317Z,100770.30
2018-05-17T02:46:35.139Z,100771.66
2018-05-17T02:49:02.554Z,100771.88
2018-05-17T02:51:30.267Z,100771.20
2018-05-17T02:53:57.672Z,100769.28
2018-05-17T02:56:25.089Z,100770.17
2018-05-17T02:58:52.522Z,100770.62
2018-05-17T03:01:19.933Z,100775.19
2018-05-17T03:03:47.341Z,100773.69
2018-05-17T03:06:14.915Z,100776.16
2018-05-17T03:08:42.328Z,100770.55
2018-05-17T03:11:09.739Z,100774.73
2018-05-17T03:13:37.161Z,100771.60
2018-05-17T03:16:04.569Z,100769.44
2018-05-17T03:18:31.997Z,100775.45
2018-05-17T03:20:59.405Z,100776.97
2018-05-17T03:23:26.813Z,100779.67
2018-05-17T03:25:54.241Z,100780.05
2018-05-17T03:28:21.651Z,100778.13
2018-05-17T03:30:49.069Z,100782.18
2018-05-17T03:33:16.620Z,100778.56
2018-05-17T03:35:44.036Z,100782.30
2018-05-17T03:38:11.440Z,100776.16
2018-05-17T03:40:38.859Z,100782.16
2018-05-17T03:43:06.280Z,100780.42
2018-05-17T03:45:33.677Z,100782.19
2018-05-17T03:48:01.092Z,100792.44
2018-05-17T03:50:28.508Z,100790.86
2018-05-17T03:52:55.912Z,100786.69
2018-05-17T03:55:23.332Z,100795.97
2018-05-17T03:57:50.737Z,100795.82
2018-05-17T04:00:18.156Z,100794.13
2018-05-17T04:02:57.756Z,100797.54
2018-05-17T04:05:36.883Z,100803.06
2018-05-17T04:08:04.301Z,100801.84
2018-05-17T04:10:31.704Z,100797.28
2018-05-17T04:12:59.107Z,100795.31
2018-05-17T04:15:26.531Z,100788.70
2018-05-17T04:17:54.242Z,100793.96
2018-05-17T04:20:21.659Z,100794.64
2018-05-17T04:22:49.059Z,100800.34
2018-05-17T04:25:16.624Z,100796.45
2018-05-17T04:27:44.028Z,100799.52
2018-05-17T04:30:11.433Z,100804.38
2018-05-17T04:32:38.860Z,100803.75
2018-05-17T04:35:06.267Z,100799.59
2018-05-17T04:37:33.673Z,100804.83
2018-05-17T04:40:01.098Z,100809.39
2018-05-17T04:42:28.523Z,100809.19
2018-05-17T04:44:55.936Z,100812.25
2018-05-17T04:47:23.356Z,100806.50
2018-05-17T04:49:50.759Z,100808.43
2018-05-17T04:52:18.513Z,100810.37
2018-05-17T04:54:45.965Z,100811.93
2018-05-17T04:57:13.324Z,100819.41
2018-05-17T04:59:40.771Z,100817.72
2018-05-17T05:02:08.202Z,100813.59
2018-05-17T05:04:35.595Z,100825.27
2018-05-17T05:07:03.020Z,100823.17
2018-05-17T05:09:30.625Z,100819.17
2018-05-17T05:11:58.003Z,100813.16
2018-05-17T05:14:25.404Z,100812.56
2018-05-17T05:16:53.105Z,100817.05
2018-05-17T05:19:20.507Z,100817.03
2018-05-17T05:21:47.913Z,100819.86
2018-05-17T05:24:15.345Z,100816.58
2018-05-17T05:26:42.781Z,100824.67
2018-05-17T05:31:37.315Z,100813.21
2018-05-17T05:34:04.715Z,100821.42
2018-05-17T05:36:32.131Z,100813.63
2018-05-17T05:38:59.554Z,100820.17
2018-05-17T05:41:26.971Z,100819.62
2018-05-17T05:43:54.387Z,100818.91
2018-05-17T05:46:21.819Z,100824.70
2018-05-17T05:48:49.255Z,100828.34
2018-05-17T05:51:16.662Z,100826.98
2018-05-17T05:53:44.075Z,100832.42
2018-05-17T05:56:11.497Z,100839.17
2018-05-17T05:58:38.906Z,100845.84
2018-05-17T06:01:06.315Z,100837.10
2018-05-17T06:03:33.736Z,100829.25
2018-05-17T06:06:01.151Z,100848.73
2018-05-17T06:08:28.662Z,100848.28
2018-05-17T06:10:55.975Z,100844.14
2018-05-17T06:13:23.404Z,100841.66
2018-05-17T06:15:50.821Z,100844.41
2018-05-17T06:18:18.240Z,100848.30
2018-05-17T06:20:45.680Z,100850.77
2018-05-17T06:23:13.085Z,100846.80
2018-05-17T06:25:40.510Z,100846.35
2018-05-17T06:28:07.916Z,100850.84
2018-05-17T06:30:35.675Z,100862.64
2018-05-17T06:33:03.095Z,100855.83
2018-05-17T06:35:30.512Z,100855.48
2018-05-17T06:37:57.928Z,100856.09
2018-05-17T06:40:25.344Z,100860.88
2018-05-17T06:42:52.755Z,100860.65
2018-05-17T06:45:20.181Z,100861.36
2018-05-17T06:47:47.595Z,100861.81
2018-05-17T06:50:15.014Z,100859.30
2018-05-17T06:52:42.416Z,100856.48
2018-05-17T06:55:09.825Z,100856.52
2018-05-17T06:57:37.257Z,100862.83
2018-05-17T07:00:05.170Z,100871.97
2018-05-17T07:02:32.572Z,100863.05
2018-05-17T07:05:00.001Z,100864.07
2018-05-17T07:07:27.412Z,100868.93
2018-05-17T07:09:54.842Z,100864.31
2018-05-17T07:12:22.271Z,100858.28
2018-05-17T07:14:51.439Z,100861.75
2018-05-17T07:17:18.839Z,100856.82
2018-05-17T07:19:46.265Z,100860.59
2018-05-17T07:22:13.739Z,100858.10
2018-05-17T07:24:41.155Z,100863.61
2018-05-17T07:27:08.576Z,100858.94
2018-05-17T07:29:35.994Z,100859.50
2018-05-17T07:32:03.484Z,100855.60
2018-05-17T07:34:30.912Z,100856.70
2018-05-17T07:36:58.364Z,100864.30
2018-05-17T07:39:25.765Z,100859.94
2018-05-17T07:41:53.196Z,100866.72
2018-05-17T07:44:20.596Z,100855.58
2018-05-17T07:46:48.054Z,100864.76
2018-05-17T07:49:16.052Z,100857.77
2018-05-17T07:51:43.505Z,100865.20
2018-05-17T07:54:10.981Z,100852.31
2018-05-17T07:56:38.400Z,100864.41
2018-05-17T07:59:05.828Z,100867.29
2018-05-17T08:01:33.243Z,100869.05
2018-05-17T08:04:00.675Z,100863.86
2018-05-17T08:06:28.097Z,100856.22
2018-05-17T08:08:55.532Z,100865.55
2018-05-17T08:11:22.948Z,100863.91
2018-05-17T08:13:50.356Z,100858.08
2018-05-17T08:16:17.789Z,100859.05
2018-05-17T08:18:45.196Z,100862.61
2018-05-17T08:21:12.622Z,100858.91
2018-05-17T08:23:40.102Z,100862.45
2018-05-17T08:26:07.573Z,100864.69
2018-05-17T08:28:35.020Z,100863.13
2018-05-17T08:31:02.432Z,100859.98
2018-05-17T08:33:29.991Z,100858.85
2018-05-17T08:35:58.336Z,100859.79
2018-05-17T08:38:25.775Z,100866.62
2018-05-17T08:40:53.188Z,100872.39
2018-05-17T08:43:20.615Z,100867.82
2018-05-17T08:45:48.045Z,100865.25
2018-05-17T08:48:15.472Z,100868.95
2018-05-17T08:50:42.905Z,100871.52
2018-05-17T08:53:10.308Z,100870.77
2018-05-17T08:55:37.732Z,100871.09
2018-05-17T08:58:05.200Z,100869.10
2018-05-17T09:00:32.657Z,100877.95
2018-05-17T09:03:00.068Z,100872.14
2018-05-17T09:05:27.468Z,100870.79
2018-05-17T09:07:54.966Z,100876.22
2018-05-17T09:10:22.304Z,100872.11
2018-05-17T09:12:49.748Z,100867.27
2018-05-17T09:15:17.160Z,100877.54
2018-05-17T09:17:44.583Z,100880.28
2018-05-17T09:20:12.165Z,100869.98
2018-05-17T09:22:39.467Z,100875.47
2018-05-17T09:25:06.928Z,100873.92
2018-05-17T09:27:34.392Z,100873.52
2018-05-17T09:30:01.836Z,100861.98
2018-05-17T09:32:32.137Z,100872.35
2018-05-17T09:34:59.560Z,100866.35
2018-05-17T09:37:26.976Z,100879.26
2018-05-17T09:39:54.408Z,100880.20
2018-05-17T09:42:21.844Z,100881.25
2018-05-17T09:44:49.252Z,100877.74
2018-05-17T09:47:16.739Z,100873.12
2018-05-17T09:49:44.168Z,100868.72
2018-05-17T09:52:11.605Z,100865.70
2018-05-17T09:54:39.004Z,100873.53
2018-05-17T09:57:06.440Z,100867.45
2018-05-17T09:59:33.876Z,100865.56
2018-05-17T10:02:01.284Z,100869.30
2018-05-17T10:04:28.712Z,100884.87
2018-05-17T10:06:56.151Z,100891.47
2018-05-17T10:09:23.556Z,100891.52
2018-05-17T10:11:50.983Z,100881.16
2018-05-17T10:14:18.389Z,100875.72
2018-05-17T10:16:45.805Z,100875.52
2018-05-17T10:19:13.235Z,100875.10
2018-05-17T10:21:40.657Z,100869.66
2018-05-17T10:24:08.084Z,100868.44
2018-05-17T10:26:36.256Z,100867.53
2018-05-17T10:29:03.684Z,100869.83
2018-05-17T10:31:31.093Z,100864.75
2018-05-17T10:33:58.594Z,100861.31
2018-05-17T10:36:26.000Z,100858.66
2018-05-17T10:38:53.556Z,100862.35
2018-05-17T10:41:20.960Z,100853.35
2018-05-17T10:43:48.366Z,100855.70
2018-05-17T10:46:15.797Z,100858.85
2018-05-17T10:48:43.240Z,100856.91
2018-05-17T10:51:10.708Z,100857.46
2018-05-17T10:53:38.114Z,100859.18
2018-05-17T10:56:05.524Z,100855.16
2018-05-17T10:58:32.938Z,100852.62
2018-05-17T11:01:00.350Z,100839.08
2018-05-17T11:03:27.779Z,100850.70
2018-05-17T11:05:55.296Z,100856.66
2018-05-17T11:08:22.754Z,100859.90
2018-05-17T11:10:50.252Z,100855.27
2018-05-17T11:13:17.620Z,100844.50
2018-05-17T11:15:45.033Z,100860.73
2018-05-17T11:18:12.539Z,100854.86
2018-05-17T11:20:39.957Z,100853.59
2018-05-17T11:23:07.380Z,100846.44
2018-05-17T11:25:34.809Z,100850.34
2018-05-17T11:28:02.222Z,100852.31
2018-05-17T11:30:29.664Z,100848.73
2018-05-17T11:32:57.116Z,100845.11
2018-05-17T11:35:24.500Z,100852.11
2018-05-17T11:37:51.933Z,100849.52
2018-05-17T11:40:19.356Z,100844.80
2018-05-17T11:42:46.784Z,100827.24
2018-05-17T11:45:20.553Z,100843.89
2018-05-17T11:47:47.990Z,100831.94
2018-05-17T11:50:15.396Z,100830.38
2018-05-17T11:52:42.811Z,100830.84
2018-05-17T11:55:10.240Z,100842.27
2018-05-17T11:57:37.650Z,100845.38
2018-05-17T12:00:05.062Z,100836.92
2018-05-17T12:02:32.496Z,100846.55
2018-05-17T12:04:59.899Z,100844.88
2018-05-17T12:07:27.356Z,100834.59
2018-05-17T12:09:54.735Z,100835.19
2018-05-17T12:12:22.159Z,100837.47
2018-05-17T12:14:49.560Z,100832.12
2018-05-17T12:17:16.995Z,100833.11
2018-05-17T12:19:44.404Z,100826.27
2018-05-17T12:22:11.824Z,100822.38
2018-05-17T12:24:39.268Z,100826.48
2018-05-17T12:27:06.672Z,100827.30
2018-05-17T12:29:34.084Z,100826.50
2018-05-17T12:32:01.607Z,100835.89
2018-05-17T12:34:33.867Z,100835.48
2018-05-17T12:37:01.334Z,100834.92
2018-05-17T12:39:28.718Z,100825.91
2018-05-17T12:41:56.124Z,100837.35
2018-05-17T12:44:24.060Z,100835.80
2018-05-17T12:46:51.468Z,100835.41
2018-05-17T12:49:18.867Z,100834.50
2018-05-17T12:51:46.306Z,100829.16
2018-05-17T12:54:13.721Z,100855.15
2018-05-17T12:56:41.190Z,100843.42
2018-05-17T12:59:08.821Z,100840.65
2018-05-17T13:01:37.387Z,100837.86
2018-05-17T13:04:04.910Z,100841.30
2018-05-17T13:06:32.783Z,100827.41
2018-05-17T13:09:00.207Z,100821.41
2018-05-17T13:11:27.615Z,100825.81
2018-05-17T13:13:55.059Z,100823.87
2018-05-17T13:16:22.461Z,100822.76
2018-05-17T13:18:49.879Z,100823.16
2018-05-17T13:21:17.312Z,100812.16
2018-05-17T13:23:44.739Z,100822.12
2018-05-17T13:26:12.205Z,100811.28
2018-05-17T13:28:39.776Z,100812.27
2018-05-17T13:31:07.250Z,100813.52
2018-05-17T13:33:34.647Z,100815.72
2018-05-17T13:36:02.075Z,100813.54
2018-05-17T13:38:29.503Z,100818.96
2018-05-17T13:40:56.919Z,100816.87
2018-05-17T13:43:24.327Z,100815.64
2018-05-17T13:45:51.760Z,100810.53
2018-05-17T13:48:19.173Z,100812.71
2018-05-17T13:50:46.737Z,100813.57
2018-05-17T13:53:14.201Z,100804.88
2018-05-17T13:55:41.619Z,100808.03
2018-05-17T13:58:09.036Z,100809.55
2018-05-17T14:00:36.440Z,100803.16
2018-05-17T14:03:03.895Z,100804.55
2018-05-17T14:05:31.387Z,100797.38
2018-05-17T14:07:58.712Z,100787.52
2018-05-17T14:10:26.365Z,100785.45
2018-05-17T14:12:53.764Z,100801.30
2018-05-17T14:15:21.296Z,100800.41
2018-05-17T14:17:48.592Z,100804.69
2018-05-17T14:20:16.004Z,100806.84
2018-05-17T14:22:43.611Z,100798.89
2018-05-17T14:25:11.028Z,100809.33
2018-05-17T14:27:38.440Z,100800.46
2018-05-17T14:30:05.860Z,100797.49
2018-05-17T14:32:33.280Z,100798.64
2018-05-17T14:35:00.704Z,100801.49
2018-05-17T14:37:28.123Z,100808.80
2018-05-17T14:39:55.546Z,100809.84
2018-05-17T14:42:22.968Z,100803.69
2018-05-17T14:44:50.375Z,100805.73
2018-05-17T14:47:17.820Z,100807.45
2018-05-17T14:49:45.561Z,100805.49
2018-05-17T14:52:12.968Z,100809.89
2018-05-17T14:54:40.381Z,100804.74
2018-05-17T14:57:07.949Z,100811.30
2018-05-17T14:59:35.424Z,100820.30
2018-05-17T15:02:02.840Z,100815.16
2018-05-17T15:04:30.269Z,100811.45
2018-05-17T15:06:57.704Z,100811.64
2018-05-17T15:09:25.110Z,100799.66
2018-05-17T15:11:52.538Z,100812.86
2018-05-17T15:14:19.960Z,100810.98
2018-05-17T15:16:47.377Z,100818.34
2018-05-17T15:19:14.794Z,100802.45
2018-05-17T15:21:42.360Z,100816.29
2018-05-17T15:24:09.764Z,100817.31
2018-05-17T15:26:37.173Z,100806.48
2018-05-17T15:29:04.599Z,100814.73
2018-05-17T15:31:32.017Z,100820.22
2018-05-17T15:33:59.472Z,100829.30
2018-05-17T15:36:26.866Z,100826.97
2018-05-17T15:38:54.287Z,100835.98
2018-05-17T15:41:21.700Z,100833.48
2018-05-17T15:43:49.109Z,100826.80
2018-05-17T15:46:16.528Z,100823.81
2018-05-17T15:48:43.948Z,100834.87
2018-05-17T15:51:11.371Z,100847.32
2018-05-17T15:53:38.877Z,100841.59
2018-05-17T15:56:06.204Z,100837.75
2018-05-17T15:58:33.615Z,100839.70
2018-05-17T16:01:01.040Z,100845.53
2018-05-17T16:03:28.471Z,100832.47
2018-05-17T16:05:55.884Z,100838.75
2018-05-17T16:08:23.295Z,100841.36
2018-05-17T16:10:50.718Z,100839.02
2018-05-17T16:13:18.446Z,100828.86
2018-05-17T16:15:45.992Z,100839.05
2018-05-17T16:18:13.256Z,100843.70
2018-05-17T16:20:40.693Z,100846.06
2018-05-17T16:23:08.110Z,100843.79
2018-05-17T16:25:35.520Z,100849.36
2018-05-17T16:28:02.939Z,100852.08
2018-05-17T16:30:30.370Z,100854.37
2018-05-17T16:32:57.771Z,100854.52
2018-05-17T16:35:25.542Z,100860.23
2018-05-17T16:37:52.944Z,100855.97
2018-05-17T16:40:20.349Z,100850.00
2018-05-17T16:42:47.935Z,100862.47
2018-05-17T16:45:15.263Z,100864.59
2018-05-17T16:47:42.749Z,100865.67
2018-05-17T16:50:10.316Z,100872.16
2018-05-17T16:52:37.745Z,100872.40
2018-05-17T16:55:05.164Z,100867.17
2018-05-17T16:57:32.916Z,100876.04
2018-05-17T17:00:00.320Z,100874.09
2018-05-17T17:02:29.917Z,100876.00
2018-05-17T17:04:57.686Z,100870.25
2018-05-17T17:07:25.100Z,100878.03
2018-05-17T17:09:52.581Z,100870.48
2018-05-17T17:12:20.470Z,100870.91
2018-05-17T17:14:47.882Z,100867.89
2018-05-17T17:17:15.316Z,100875.59
2018-05-17T17:19:43.072Z,100879.76
2018-05-17T17:22:10.531Z,100883.73
2018-05-17T17:24:37.967Z,100880.23
2018-05-17T17:27:05.394Z,100883.89
2018-05-17T17:29:32.815Z,100881.49
2018-05-17T17:32:00.236Z,100885.70
2018-05-17T17:34:27.644Z,100878.57
2018-05-17T17:36:55.059Z,100882.52
2018-05-17T17:39:22.839Z,100890.94
2018-05-17T17:41:50.327Z,100890.80
2018-05-17T17:44:17.738Z,100880.45
2018-05-17T17:46:45.183Z,100892.98
2018-05-17T17:49:12.589Z,100897.08
2018-05-17T17:51:39.998Z,100895.73
2018-05-17T17:54:07.761Z,100894.69
2018-05-17T17:56:35.631Z,100895.52
2018-05-17T17:59:03.040Z,100897.36
2018-05-17T18:01:30.614Z,100892.75
2018-05-17T18:03:58.036Z,100894.87
2018-05-17T18:06:25.452Z,100892.22
2018-05-17T18:08:52.872Z,100887.25
2018-05-17T18:11:20.285Z,100893.52
2018-05-17T18:13:47.704Z,100886.22
2018-05-17T18:16:15.130Z,100886.72
2018-05-17T18:18:43.368Z,100888.72
2018-05-17T18:21:10.772Z,100892.22
2018-05-17T18:23:38.196Z,100892.92
2018-05-17T18:26:05.641Z,100887.70
2018-05-17T18:28:33.040Z,100893.75
2018-05-17T18:31:00.837Z,100892.05
2018-05-17T18:33:28.245Z,100888.91
2018-05-17T18:35:55.651Z,100900.20
2018-05-17T18:38:23.093Z,100906.95
2018-05-17T18:40:50.523Z,100905.17
2018-05-17T18:43:17.952Z,100907.44
2018-05-17T18:45:45.356Z,100909.36
2018-05-17T18:48:12.784Z,100907.83
2018-05-17T18:50:40.197Z,100911.58
2018-05-17T18:53:07.620Z,100909.25
2018-05-17T18:55:35.031Z,100908.52
2018-05-17T18:58:02.435Z,100921.16
2018-05-17T19:00:29.866Z,100921.56
2018-05-17T19:02:57.289Z,100930.27
2018-05-17T19:05:24.692Z,100931.02
2018-05-17T19:07:52.124Z,100931.06
2018-05-17T19:10:19.551Z,100922.72
2018-05-17T19:12:46.965Z,100935.94
2018-05-17T19:15:14.524Z,100932.03
2018-05-17T19:17:41.943Z,100936.34
2018-05-17T19:20:09.355Z,100946.21
2018-05-17T19:22:36.797Z,100944.34
2018-05-17T19:25:04.206Z,100951.72
2018-05-17T19:27:31.924Z,100947.18
2018-05-17T19:29:59.338Z,100951.73
2018-05-17T19:32:26.749Z,100956.64
2018-05-17T19:34:54.171Z,100961.20
2018-05-17T19:37:21.630Z,100957.66
2018-05-17T19:39:49.024Z,100960.50
2018-05-17T19:42:16.438Z,100960.41
2018-05-17T19:44:43.874Z,100972.67
2018-05-17T19:47:11.301Z,100970.94
2018-05-17T19:49:38.716Z,100976.77
2018-05-17T19:52:06.138Z,100976.04
2018-05-17T19:54:33.548Z,100973.05
2018-05-17T19:57:00.974Z,100974.56
2018-05-17T19:59:28.396Z,100977.67
2018-05-17T20:01:55.840Z,100978.83
2018-05-17T20:04:23.269Z,100973.10
2018-05-17T20:06:50.711Z,100978.81
2018-05-17T20:09:18.124Z,100970.98
2018-05-17T20:11:45.763Z,100974.16
2018-05-17T20:14:13.180Z,100972.86
2018-05-17T20:16:40.589Z,100979.41
2018-05-17T20:19:08.380Z,100980.44
2018-05-17T20:21:35.783Z,100980.28
2018-05-17T20:24:03.198Z,100985.02
2018-05-17T20:26:30.633Z,100982.13
2018-05-17T20:28:58.048Z,100984.50
2018-05-17T20:31:25.457Z,100991.02
2018-05-17T20:33:52.908Z,100983.80
2018-05-17T20:36:21.694Z,100994.98
2018-05-17T20:38:49.114Z,100992.36
2018-05-17T20:41:16.584Z,100993.19
2018-05-17T20:43:43.995Z,100993.19
2018-05-17T20:46:11.412Z,100997.13
2018-05-17T20:48:38.840Z,100993.28
2018-05-17T20:51:06.268Z,100992.39
2018-05-17T20:53:33.695Z,100989.59
2018-05-17T20:56:01.122Z,100990.21
2018-05-17T20:58:28.556Z,101000.44
2018-05-17T21:00:56.360Z,100992.38
2018-05-17T21:03:23.769Z,100995.67
2018-05-17T21:05:51.233Z,100982.70
2018-05-17T21:08:18.639Z,100991.40
2018-05-17T21:10:46.048Z,100981.91
2018-05-17T21:13:13.484Z,100988.91
2018-05-17T21:15:50.091Z,100980.32
2018-05-17T21:18:17.532Z,100984.41
2018-05-17T21:20:46.064Z,100992.38
2018-05-17T21:23:13.846Z,100996.36
2018-05-17T21:25:41.275Z,100994.08
2018-05-17T21:28:08.688Z,100993.11
2018-05-17T21:30:36.462Z,100992.70
2018-05-17T21:33:03.874Z,100993.59
2018-05-17T21:35:31.284Z,100986.97
2018-05-17T21:37:58.715Z,100992.83
2018-05-17T21:40:26.121Z,100992.38
2018-05-17T21:42:53.539Z,100994.04
2018-05-17T21:45:20.949Z,100991.85
2018-05-17T21:47:48.356Z,100993.11
2018-05-17T21:50:15.815Z,100988.92
2018-05-17T21:52:43.236Z,100991.69
2018-05-17T21:55:10.956Z,100994.00
2018-05-17T21:57:38.366Z,100990.02
2018-05-17T22:00:05.776Z,100992.30
2018-05-17T22:02:33.196Z,100991.23
2018-05-17T22:05:00.644Z,100990.35
2018-05-17T22:07:28.132Z,100985.47
2018-05-17T22:09:55.473Z,100984.25
2018-05-17T22:12:23.152Z,100988.47
2018-05-17T22:14:50.566Z,100990.42
2018-05-17T22:17:17.976Z,100991.28
2018-05-17T22:19:45.767Z,100984.73
2018-05-17T22:22:13.172Z,100987.38
2018-05-17T22:24:40.711Z,100989.89
2018-05-17T22:27:08.321Z,100990.47
2018-05-17T22:29:35.753Z,100984.48
2018-05-17T22:32:03.170Z,100986.40
2018-05-17T22:34:30.656Z,100988.51
2018-05-17T22:36:58.094Z,100982.66
2018-05-17T22:39:25.860Z,100977.94
2018-05-17T22:41:53.293Z,100973.84
2018-05-17T22:44:20.716Z,100975.51
2018-05-17T22:46:48.157Z,100977.34
2018-05-17T22:49:15.578Z,100980.62
2018-05-17T22:51:43.102Z,100978.42
2018-05-17T22:54:10.443Z,100977.73
2018-05-17T22:56:50.021Z,100982.55
2018-05-17T22:59:17.428Z,100978.08
2018-05-17T23:01:44.872Z,100975.44
2018-05-17T23:04:12.302Z,100971.41
2018-05-17T23:06:39.737Z,100967.16
2018-05-17T23:09:07.176Z,100968.70
2018-05-17T23:11:34.592Z,100970.20
2018-05-17T23:14:02.017Z,100973.39
2018-05-17T23:16:29.479Z,100977.38
2018-05-17T23:18:56.897Z,100977.73
2018-05-17T23:21:24.341Z,100970.45
2018-05-17T23:23:51.756Z,100972.48
2018-05-17T23:26:19.180Z,100969.81
2018-05-17T23:28:46.627Z,100969.72
2018-05-17T23:31:14.042Z,100974.08
2018-05-17T23:33:41.520Z,100969.94
2018-05-17T23:36:08.974Z,100980.70
2018-05-17T23:38:36.391Z,100979.95
2018-05-17T23:44:06.638Z,100977.60
2018-05-17T23:46:34.905Z,100976.31
2018-05-17T23:49:02.349Z,100969.58
2018-05-17T23:51:29.773Z,100970.20
2018-05-17T23:53:57.227Z,100971.63
2018-05-17T23:56:24.637Z,100974.16
2018-05-17T23:58:52.048Z,100965.34
